Time;durP1;ratioP1;P1;durP2;ratioP2;P2;SDS_P1;SDS_P2;PMS_P1;PMS_P2;Temp;Humidity;BMP_temperature;BMP_pressure;BME280_temperature;BME280_humidity;BME280_pressure;Samples;Min_cycle;Max_cycle;Signal;HPM_P1;HPM_P2
2022/04/07 00:00:59;;;;;;;2.22;1.63;;;10.20;99.90;;;;;;5054891;28;20099;-88
2022/04/07 00:03:26;;;;;;;2.85;1.80;;;10.20;99.90;;;;;;5053063;28;20421;-91
2022/04/07 00:05:53;;;;;;;4.15;1.80;;;10.10;99.90;;;;;;5053685;28;20060;-88
2022/04/07 00:08:20;;;;;;;4.13;2.10;;;10.20;99.90;;;;;;5052846;28;20190;-88
2022/04/07 00:10:48;;;;;;;3.80;2.20;;;10.10;99.90;;;;;;5053569;28;20056;-90
2022/04/07 00:13:15;;;;;;;3.28;2.00;;;10.00;99.90;;;;;;5053774;28;20049;-89
2022/04/07 00:15:42;;;;;;;4.57;2.05;;;10.10;99.90;;;;;;5053525;28;20077;-87
2022/04/07 00:18:09;;;;;;;4.70;1.88;;;10.00;99.90;;;;;;5052835;28;20542;-89
2022/04/07 00:20:36;;;;;;;2.38;1.77;;;10.00;99.90;;;;;;5053737;28;20085;-89
2022/04/07 00:23:03;;;;;;;1.90;1.80;;;10.00;99.90;;;;;;5052572;28;20481;-88
2022/04/07 00:25:31;;;;;;;3.92;2.28;;;10.10;99.90;;;;;;5051898;28;20135;-89
2022/04/07 00:27:57;;;;;;;4.78;2.10;;;10.10;99.90;;;;;;5053653;28;20053;-89
2022/04/07 00:30:24;;;;;;;2.72;1.98;;;10.10;99.90;;;;;;5052448;28;20049;-89
2022/04/07 00:32:51;;;;;;;3.15;1.80;;;10.10;99.90;;;;;;5052728;28;20049;-88
2022/04/07 00:35:18;;;;;;;2.53;2.17;;;10.10;99.90;;;;;;5052286;28;20150;-87
2022/04/07 00:37:45;;;;;;;3.20;2.10;;;10.20;99.90;;;;;;5051929;28;20156;-88
2022/04/07 00:40:12;;;;;;;2.60;1.95;;;10.20;99.90;;;;;;5053139;28;20060;-87
2022/04/07 00:42:48;;;;;;;7.35;1.85;;;10.20;99.90;;;;;;5052995;28;20087;-90
2022/04/07 00:45:17;;;;;;;4.30;2.10;;;10.20;99.90;;;;;;5052341;28;20095;-87
2022/04/07 00:47:45;;;;;;;4.65;1.90;;;10.20;99.90;;;;;;5052326;28;20063;-88
2022/04/07 00:50:13;;;;;;;2.47;2.10;;;10.20;99.90;;;;;;5053512;28;20139;-89
2022/04/07 00:52:43;;;;;;;2.83;2.20;;;10.30;99.90;;;;;;5052297;28;20457;-88
2022/04/07 00:55:11;;;;;;;2.13;1.90;;;10.30;99.90;;;;;;5052279;28;20544;-89
2022/04/07 00:57:39;;;;;;;2.80;2.40;;;10.30;99.90;;;;;;5052227;28;20079;-88
2022/04/07 01:00:08;;;;;;;3.72;2.65;;;10.40;99.90;;;;;;5052121;28;20568;-88
2022/04/07 01:02:36;;;;;;;3.33;2.05;;;10.40;99.90;;;;;;5052044;28;20139;-88
2022/04/07 01:05:07;;;;;;;2.88;2.10;;;10.40;99.90;;;;;;5051868;28;20386;-88
2022/04/07 01:07:39;;;;;;;2.20;2.00;;;10.40;99.90;;;;;;5053246;28;20135;-88
2022/04/07 01:10:08;;;;;;;15.07;2.45;;;10.30;99.90;;;;;;5052223;28;20144;-88
2022/04/07 01:12:36;;;;;;;3.78;2.08;;;10.20;99.90;;;;;;5052993;28;20470;-88
2022/04/07 01:15:07;;;;;;;2.47;1.90;;;10.20;99.90;;;;;;5052213;28;20417;-88
2022/04/07 01:17:35;;;;;;;2.25;1.92;;;10.10;99.90;;;;;;5051722;28;20469;-87
2022/04/07 01:20:03;;;;;;;4.78;2.13;;;10.20;99.90;;;;;;5053159;28;20049;-88
2022/04/07 01:22:34;;;;;;;1.88;1.77;;;10.20;99.90;;;;;;5052126;28;20135;-90
2022/04/07 01:25:01;;;;;;;2.25;2.03;;;10.30;99.90;;;;;;5052098;28;20147;-89
2022/04/07 01:27:28;;;;;;;3.15;2.20;;;10.40;99.90;;;;;;5052163;28;20053;-89
2022/04/07 01:29:56;;;;;;;2.97;2.45;;;10.40;99.90;;;;;;5051510;28;20465;-88
2022/04/07 01:32:40;;;;;;;5.38;2.53;;;10.40;99.90;;;;;;5052934;28;20053;-90
2022/04/07 01:35:08;;;;;;;2.35;2.03;;;10.40;99.90;;;;;;5052025;28;20136;-88
2022/04/07 01:37:37;;;;;;;4.30;2.17;;;10.40;99.90;;;;;;5051432;28;20124;-91
2022/04/07 01:40:06;;;;;;;7.88;2.60;;;10.40;99.90;;;;;;5051839;28;20084;-90
2022/04/07 01:42:36;;;;;;;5.75;2.40;;;10.40;99.90;;;;;;5051213;28;20143;-87
2022/04/07 01:45:05;;;;;;;2.75;1.80;;;10.40;99.90;;;;;;5051857;28;20448;-90
2022/04/07 01:47:34;;;;;;;3.17;2.67;;;10.40;99.90;;;;;;5052766;28;20553;-88
2022/04/07 01:50:05;;;;;;;2.30;2.05;;;10.40;99.90;;;;;;5052005;28;20049;-89
2022/04/07 01:52:35;;;;;;;5.53;2.40;;;10.40;99.90;;;;;;5051918;28;20088;-90
2022/04/07 01:55:03;;;;;;;4.28;2.13;;;10.40;99.90;;;;;;5051413;28;20120;-86
2022/04/07 01:57:31;;;;;;;2.80;2.05;;;10.50;99.90;;;;;;5052617;28;20052;-90
2022/04/07 01:59:59;;;;;;;3.15;2.10;;;10.50;99.90;;;;;;5051826;28;20045;-89
2022/04/07 02:02:27;;;;;;;4.05;2.38;;;10.40;99.90;;;;;;5052088;28;20083;-89
2022/04/07 02:04:56;;;;;;;6.22;1.98;;;10.50;99.90;;;;;;5055169;28;20125;-88
2022/04/07 02:07:30;;;;;;;2.22;2.03;;;10.40;99.90;;;;;;5071701;28;20081;-87
2022/04/07 02:09:58;;;;;;;3.20;2.80;;;10.40;99.90;;;;;;5056119;28;20057;-89
2022/04/07 02:12:29;;;;;;;2.40;2.20;;;10.40;99.90;;;;;;5055073;28;20511;-89
2022/04/07 02:15:01;;;;;;;2.42;2.20;;;10.40;99.90;;;;;;5055182;28;20050;-89
2022/04/07 02:17:28;;;;;;;7.90;2.30;;;10.40;99.90;;;;;;5054753;28;20077;-89
2022/04/07 02:19:59;;;;;;;3.15;1.83;;;10.40;99.90;;;;;;5054945;28;20135;-88
2022/04/07 02:22:29;;;;;;;2.13;1.83;;;10.30;99.90;;;;;;5055037;28;20143;-88
2022/04/07 02:24:56;;;;;;;1.90;1.80;;;10.30;99.90;;;;;;5056047;28;20132;-88
2022/04/07 02:27:23;;;;;;;1.85;1.70;;;10.30;99.90;;;;;;5055000;28;20416;-87
2022/04/07 02:29:50;;;;;;;2.13;1.85;;;10.40;99.90;;;;;;5055002;28;20140;-89
2022/04/07 02:32:17;;;;;;;1.70;1.60;;;10.30;99.90;;;;;;5054929;28;20080;-87
2022/04/07 02:34:44;;;;;;;2.10;1.90;;;10.30;99.90;;;;;;5055511;28;20476;-88
2022/04/07 02:37:11;;;;;;;2.45;1.75;;;10.30;99.90;;;;;;5055798;28;20052;-87
2022/04/07 02:39:37;;;;;;;2.40;1.83;;;10.30;99.90;;;;;;5054699;28;20556;-88
2022/04/07 02:42:04;;;;;;;2.30;1.80;;;10.20;99.90;;;;;;5055778;28;20083;-89
2022/04/07 02:44:31;;;;;;;1.98;1.75;;;10.20;99.90;;;;;;5055607;28;20128;-92
2022/04/07 02:46:58;;;;;;;2.60;1.80;;;10.30;99.90;;;;;;5054147;28;20131;-88
2022/04/07 02:49:25;;;;;;;7.00;1.98;;;10.30;99.90;;;;;;5054215;28;20114;-88
2022/04/07 02:51:51;;;;;;;2.50;1.80;;;10.30;99.90;;;;;;5055857;28;20136;-90
2022/04/07 02:54:18;;;;;;;8.60;1.60;;;10.30;99.90;;;;;;5055567;28;20080;-89
2022/04/07 02:56:46;;;;;;;2.15;1.52;;;10.30;99.90;;;;;;5055706;28;20473;-89
2022/04/07 02:59:13;;;;;;;1.98;1.42;;;10.30;99.90;;;;;;5054442;28;20476;-87
2022/04/07 03:01:40;;;;;;;2.17;1.55;;;10.30;99.90;;;;;;5055128;28;20061;-91
2022/04/07 03:04:06;;;;;;;1.40;1.27;;;10.30;99.90;;;;;;5054185;28;20061;-88
2022/04/07 03:06:33;;;;;;;2.28;1.10;;;10.20;99.90;;;;;;5053912;28;20102;-88
2022/04/07 03:09:00;;;;;;;1.60;1.50;;;10.30;99.90;;;;;;5053866;28;20056;-87
2022/04/07 03:11:27;;;;;;;3.38;1.40;;;10.20;99.90;;;;;;5054778;28;20564;-89
2022/04/07 03:13:54;;;;;;;3.30;1.20;;;10.20;99.90;;;;;;5054151;28;20076;-88
2022/04/07 03:16:21;;;;;;;1.30;1.20;;;10.20;99.90;;;;;;5053531;28;20140;-88
2022/04/07 03:18:47;;;;;;;1.92;0.88;;;10.20;99.90;;;;;;5053745;28;20494;-88
2022/04/07 03:21:14;;;;;;;3.25;1.20;;;10.20;99.90;;;;;;5054035;28;20053;-86
2022/04/07 03:23:41;;;;;;;3.13;1.05;;;10.30;99.90;;;;;;5054734;28;20053;-89
2022/04/07 03:26:07;;;;;;;1.98;1.30;;;10.20;99.90;;;;;;5053575;28;20080;-88
2022/04/07 03:28:34;;;;;;;2.80;1.55;;;10.10;99.90;;;;;;5053556;28;20084;-88
2022/04/07 03:31:01;;;;;;;5.00;1.80;;;10.10;99.90;;;;;;5053721;28;20110;-88
2022/04/07 03:33:28;;;;;;;4.88;1.25;;;10.10;99.90;;;;;;5053560;28;20077;-89
2022/04/07 03:35:55;;;;;;;2.78;1.30;;;10.10;99.90;;;;;;5053395;28;20528;-87
2022/04/07 03:38:22;;;;;;;1.38;1.20;;;10.10;99.90;;;;;;5053310;28;20091;-88
2022/04/07 03:40:49;;;;;;;1.27;1.20;;;10.20;99.90;;;;;;5053513;28;20132;-89
2022/04/07 03:43:16;;;;;;;4.40;2.15;;;10.20;99.90;;;;;;5053247;28;20049;-88
2022/04/07 03:45:43;;;;;;;8.45;1.75;;;10.20;99.90;;;;;;5053966;28;20103;-87
2022/04/07 03:48:10;;;;;;;1.95;1.40;;;10.10;99.90;;;;;;5053647;28;20408;-89
2022/04/07 03:50:37;;;;;;;1.40;1.30;;;10.10;99.90;;;;;;5053289;28;20094;-88
2022/04/07 03:53:04;;;;;;;3.38;1.75;;;10.10;99.90;;;;;;5053386;28;20124;-90
2022/04/07 03:55:31;;;;;;;2.40;1.40;;;10.00;99.90;;;;;;5053117;28;20102;-88
2022/04/07 03:57:58;;;;;;;1.70;1.60;;;9.90;99.90;;;;;;5053138;28;20053;-89
2022/04/07 04:00:26;;;;;;;1.50;1.40;;;9.90;99.90;;;;;;5053161;28;20088;-88
2022/04/07 04:02:52;;;;;;;2.28;1.65;;;9.80;99.90;;;;;;5053328;28;20067;-88
2022/04/07 04:05:20;;;;;;;2.03;1.60;;;9.80;99.90;;;;;;5053945;28;20059;-88
2022/04/07 04:07:46;;;;;;;1.73;1.55;;;9.70;99.90;;;;;;5053961;28;20049;-93
2022/04/07 04:10:14;;;;;;;3.42;1.50;;;9.70;99.90;;;;;;5053722;28;20128;-87
2022/04/07 04:12:40;;;;;;;2.92;1.60;;;9.60;99.90;;;;;;5052766;28;20093;-88
2022/04/07 04:15:08;;;;;;;1.45;1.40;;;9.60;99.90;;;;;;5052828;28;20148;-88
2022/04/07 04:17:35;;;;;;;1.67;1.63;;;9.50;99.90;;;;;;5052501;28;20053;-87
2022/04/07 04:20:02;;;;;;;4.00;1.70;;;9.50;99.90;;;;;;5052824;28;20055;-89
2022/04/07 04:22:28;;;;;;;1.75;1.35;;;9.50;99.90;;;;;;5055042;28;20080;-88
2022/04/07 04:24:55;;;;;;;1.55;1.45;;;9.50;99.90;;;;;;5053459;28;20049;-87
2022/04/07 04:27:22;;;;;;;1.73;1.45;;;9.50;99.90;;;;;;5052462;28;20164;-88
2022/04/07 04:29:49;;;;;;;2.85;1.40;;;9.50;99.90;;;;;;5052610;28;20503;-89
2022/04/07 04:32:15;;;;;;;1.52;1.40;;;9.50;99.90;;;;;;5053397;28;20449;-90
2022/04/07 04:34:42;;;;;;;1.70;1.60;;;9.40;99.90;;;;;;5052461;28;20466;-88
2022/04/07 04:37:09;;;;;;;1.30;1.30;;;9.30;99.90;;;;;;5052371;28;20139;-90
2022/04/07 04:39:36;;;;;;;2.15;1.40;;;9.10;99.90;;;;;;5052809;28;20128;-90
2022/04/07 04:42:04;;;;;;;1.70;1.60;;;9.00;99.90;;;;;;5052845;28;20140;-90
2022/04/07 04:44:32;;;;;;;1.45;1.35;;;8.90;99.90;;;;;;5053210;28;20468;-88
2022/04/07 04:46:58;;;;;;;1.70;1.38;;;8.90;99.90;;;;;;5053123;28;20081;-88
2022/04/07 04:49:25;;;;;;;1.00;1.00;;;8.80;99.90;;;;;;5053830;28;20148;-90
2022/04/07 04:51:52;;;;;;;1.27;1.27;;;8.70;99.90;;;;;;5052885;28;20408;-89
2022/04/07 04:54:19;;;;;;;1.30;1.30;;;8.70;99.90;;;;;;5052906;28;20095;-91
2022/04/07 04:56:46;;;;;;;1.17;1.17;;;8.60;99.90;;;;;;5053776;28;20127;-90
2022/04/07 04:59:13;;;;;;;1.10;1.10;;;8.60;99.90;;;;;;5052654;28;20386;-90
2022/04/07 05:01:39;;;;;;;1.60;1.05;;;8.50;99.90;;;;;;5053930;28;20132;-89
2022/04/07 05:04:06;;;;;;;1.60;1.20;;;8.50;99.90;;;;;;5054096;28;20045;-89
2022/04/07 05:06:33;;;;;;;1.30;1.20;;;8.50;99.90;;;;;;5052633;28;20106;-89
2022/04/07 05:09:00;;;;;;;1.63;1.52;;;8.50;99.90;;;;;;5053928;28;20075;-88
2022/04/07 05:11:27;;;;;;;2.17;1.90;;;8.50;99.90;;;;;;5052807;28;20091;-91
2022/04/07 05:13:53;;;;;;;4.57;1.88;;;8.50;99.90;;;;;;5052809;28;20477;-90
2022/04/07 05:16:20;;;;;;;3.60;2.38;;;8.40;99.90;;;;;;5053531;28;20497;-87
2022/04/07 05:18:49;;;;;;;1.80;1.70;;;8.50;99.90;;;;;;5053276;28;20056;-89
2022/04/07 05:21:16;;;;;;;4.70;2.40;;;8.60;99.90;;;;;;5055852;28;20051;-87
2022/04/07 05:23:43;;;;;;;2.20;2.10;;;8.70;99.90;;;;;;5052438;28;20045;-87
2022/04/07 05:26:12;;;;;;;2.03;1.83;;;8.70;99.90;;;;;;5053663;28;20067;-88
2022/04/07 05:28:40;;;;;;;1.70;1.60;;;8.80;99.90;;;;;;5053516;28;20048;-88
2022/04/07 05:31:07;;;;;;;1.52;1.42;;;8.80;99.90;;;;;;5052509;28;20484;-88
2022/04/07 05:33:34;;;;;;;1.48;1.38;;;8.80;99.90;;;;;;5053583;28;20053;-89
2022/04/07 05:36:01;;;;;;;1.67;1.58;;;8.70;99.90;;;;;;5052537;28;20127;-89
2022/04/07 05:38:28;;;;;;;1.48;1.38;;;8.70;99.90;;;;;;5055684;28;20095;-88
2022/04/07 05:40:55;;;;;;;2.60;1.63;;;8.60;99.90;;;;;;5057581;28;20044;-88
2022/04/07 05:43:22;;;;;;;1.40;1.40;;;8.60;99.90;;;;;;5056552;28;20143;-88
2022/04/07 05:45:50;;;;;;;2.10;2.00;;;8.70;99.90;;;;;;5056269;28;20131;-90
2022/04/07 05:48:17;;;;;;;2.33;1.35;;;8.60;99.90;;;;;;5056352;28;20132;-89
2022/04/07 05:50:44;;;;;;;1.60;1.50;;;8.70;99.90;;;;;;5056347;28;20107;-91
2022/04/07 05:53:11;;;;;;;1.70;1.60;;;8.70;99.90;;;;;;5056474;28;20056;-90
2022/04/07 05:55:39;;;;;;;2.55;1.20;;;8.70;99.90;;;;;;5056103;28;20056;-89
2022/04/07 05:58:07;;;;;;;0.82;0.82;;;8.70;99.90;;;;;;5056388;28;20052;-88
2022/04/07 06:00:37;;;;;;;2.25;1.00;;;8.70;99.90;;;;;;5057123;28;20076;-88
2022/04/07 06:03:04;;;;;;;3.15;1.40;;;8.80;99.90;;;;;;5056263;28;20045;-89
2022/04/07 06:05:35;;;;;;;0.90;0.70;;;8.80;99.90;;;;;;5056859;28;20135;-89
2022/04/07 06:08:02;;;;;;;1.60;0.80;;;8.90;99.90;;;;;;5055948;28;20041;-87
2022/04/07 06:10:30;;;;;;;0.73;0.73;;;9.00;99.90;;;;;;5056229;28;20137;-90
2022/04/07 06:12:57;;;;;;;1.20;0.55;;;9.10;99.90;;;;;;5057208;28;20499;-88
2022/04/07 06:15:24;;;;;;;0.40;0.40;;;9.10;99.90;;;;;;5057404;28;20061;-88
2022/04/07 06:17:51;;;;;;;0.70;0.70;;;9.20;99.90;;;;;;5056390;28;20435;-89
2022/04/07 06:20:18;;;;;;;1.58;0.50;;;9.30;99.90;;;;;;5055820;28;20503;-90
2022/04/07 06:22:45;;;;;;;0.77;0.60;;;9.40;99.90;;;;;;5055937;28;20527;-91
2022/04/07 06:25:12;;;;;;;0.55;0.55;;;9.40;99.90;;;;;;5055883;28;20106;-90
2022/04/07 06:27:43;;;;;;;0.40;0.40;;;9.40;99.90;;;;;;5055626;28;20128;-86
2022/04/07 06:30:18;;;;;;;0.43;0.40;;;9.30;99.90;;;;;;5055625;28;20060;-88
2022/04/07 06:32:46;;;;;;;0.30;0.30;;;9.20;99.90;;;;;;5055874;28;20140;-91
2022/04/07 06:35:15;;;;;;;0.30;0.30;;;9.10;99.90;;;;;;5056282;28;20052;-89
2022/04/07 06:37:49;;;;;;;0.25;0.25;;;9.10;99.90;;;;;;5055558;28;20088;-89
2022/04/07 06:40:19;;;;;;;0.55;0.35;;;9.10;99.90;;;;;;5054915;28;20049;-89
2022/04/07 06:42:50;;;;;;;0.40;0.35;;;9.20;99.90;;;;;;5056236;28;20055;-88
2022/04/07 06:45:23;;;;;;;0.80;0.60;;;9.30;99.90;;;;;;5055523;28;20049;-91
2022/04/07 06:47:50;;;;;;;3.50;0.30;;;9.30;99.90;;;;;;5055445;28;20056;-89
2022/04/07 06:50:18;;;;;;;0.30;0.30;;;9.40;99.90;;;;;;5054030;28;20080;-89
2022/04/07 06:52:45;;;;;;;0.30;0.30;;;9.40;99.90;;;;;;5055073;28;20440;-90
2022/04/07 06:55:14;;;;;;;2.40;0.50;;;9.50;99.90;;;;;;5055300;28;20482;-88
2022/04/07 06:57:58;;;;;;;0.50;0.50;;;9.40;99.90;;;;;;5055462;28;20088;-89
2022/04/07 07:00:27;;;;;;;0.63;0.60;;;9.40;99.90;;;;;;5055012;28;20489;-91
2022/04/07 07:02:55;;;;;;;0.80;0.68;;;9.30;99.90;;;;;;5055393;28;20485;-88
2022/04/07 07:05:27;;;;;;;1.13;0.57;;;9.20;99.90;;;;;;5054642;28;20086;-90
2022/04/07 07:07:54;;;;;;;0.60;0.60;;;9.30;99.90;;;;;;5054882;28;20405;-89
2022/04/07 07:10:28;;;;;;;1.33;0.82;;;9.20;99.90;;;;;;5054770;28;20088;-88
2022/04/07 07:12:55;;;;;;;0.70;0.70;;;9.20;99.90;;;;;;5054843;28;20048;-89
2022/04/07 07:15:22;;;;;;;0.88;0.50;;;9.30;99.90;;;;;;5054743;28;20052;-90
2022/04/07 07:17:49;;;;;;;0.57;0.52;;;9.40;99.90;;;;;;5054446;28;20576;-89
2022/04/07 07:20:16;;;;;;;1.50;0.95;;;9.50;99.90;;;;;;5054655;28;20053;-88
2022/04/07 07:22:43;;;;;;;1.65;0.60;;;9.50;99.90;;;;;;5055766;28;20144;-89
2022/04/07 07:25:12;;;;;;;1.25;0.60;;;9.60;99.90;;;;;;5055493;28;20147;-91
2022/04/07 07:27:46;;;;;;;5.10;0.70;;;9.70;99.90;;;;;;5054351;28;20141;-91
2022/04/07 07:30:15;;;;;;;0.50;0.50;;;9.80;99.90;;;;;;5054430;28;20135;-90
2022/04/07 07:32:45;;;;;;;0.75;0.47;;;9.90;99.90;;;;;;5054251;28;20049;-89
2022/04/07 07:35:12;;;;;;;0.57;0.50;;;10.10;99.90;;;;;;5054555;28;20087;-88
2022/04/07 07:37:53;;;;;;;0.57;0.57;;;10.20;99.90;;;;;;5054939;28;20048;-90
2022/04/07 07:40:23;;;;;;;1.25;0.60;;;10.20;99.90;;;;;;5054381;28;20420;-91
2022/04/07 07:42:56;;;;;;;1.98;0.50;;;10.20;99.90;;;;;;5054232;28;20073;-94
2022/04/07 07:45:24;;;;;;;0.43;0.43;;;10.30;99.90;;;;;;5054303;28;20130;-90
2022/04/07 07:48:12;;;;;;;0.60;0.60;;;10.20;99.90;;;;;;5054345;28;20067;-89
2022/04/07 07:50:45;;;;;;;0.60;0.60;;;10.10;99.90;;;;;;5056346;28;20072;-89
2022/04/07 07:53:17;;;;;;;0.35;0.35;;;9.90;99.90;;;;;;5054392;28;20524;-92
2022/04/07 07:55:44;;;;;;;0.28;0.28;;;9.90;99.90;;;;;;5054831;28;20055;-89
2022/04/07 07:58:10;;;;;;;0.40;0.40;;;9.80;99.90;;;;;;5054837;28;20045;-89
2022/04/07 08:00:38;;;;;;;2.60;0.50;;;9.60;99.90;;;;;;5054148;28;20131;-90
2022/04/07 08:03:05;;;;;;;0.63;0.55;;;9.60;99.90;;;;;;5053898;28;20060;-89
2022/04/07 08:05:32;;;;;;;0.45;0.40;;;9.70;99.90;;;;;;5053690;28;20069;-89
2022/04/07 08:07:59;;;;;;;0.30;0.30;;;9.70;99.90;;;;;;5070303;28;20271;-91
2022/04/07 08:10:26;;;;;;;2.67;0.45;;;9.70;99.90;;;;;;5054732;28;20053;-88
2022/04/07 08:12:52;;;;;;;0.30;0.30;;;9.70;99.90;;;;;;5053146;28;20044;-86
2022/04/07 08:15:20;;;;;;;0.52;0.40;;;9.80;99.90;;;;;;5053251;28;20500;-88
2022/04/07 08:17:47;;;;;;;0.90;0.80;;;10.10;99.90;;;;;;5054729;28;20053;-88
2022/04/07 08:20:13;;;;;;;3.35;0.35;;;10.30;99.90;;;;;;5054418;28;20174;-89
2022/04/07 08:22:40;;;;;;;0.75;0.30;;;10.40;99.90;;;;;;5053078;28;20382;-90
2022/04/07 08:25:08;;;;;;;0.95;0.30;;;10.60;99.90;;;;;;5054694;28;20055;-90
2022/04/07 08:27:35;;;;;;;0.50;0.38;;;10.70;99.90;;;;;;5054403;28;20551;-90
2022/04/07 08:30:03;;;;;;;0.40;0.40;;;10.90;99.90;;;;;;5053288;28;20501;-90
2022/04/07 08:32:32;;;;;;;0.20;0.20;;;11.10;99.90;;;;;;5052850;28;20052;-90
2022/04/07 08:34:59;;;;;;;0.40;0.40;;;11.20;99.90;;;;;;5053224;28;20170;-88
2022/04/07 08:37:26;;;;;;;0.60;0.40;;;11.20;99.90;;;;;;5053606;28;20049;-89
2022/04/07 08:39:53;;;;;;;0.50;0.50;;;11.80;99.90;;;;;;5053225;28;20461;-86
2022/04/07 08:42:26;;;;;;;0.28;0.28;;;11.90;99.90;;;;;;5052906;28;20040;-87
2022/04/07 08:44:54;;;;;;;1.73;0.40;;;11.80;99.90;;;;;;5054055;28;20095;-88
2022/04/07 08:47:21;;;;;;;0.63;0.32;;;11.90;99.90;;;;;;5053815;28;20048;-89
2022/04/07 08:49:49;;;;;;;3.00;0.40;;;12.10;99.90;;;;;;5052913;28;20122;-90
2022/04/07 08:52:18;;;;;;;2.40;0.38;;;12.10;99.90;;;;;;5052986;28;20051;-90
2022/04/07 08:54:46;;;;;;;0.43;0.28;;;11.90;99.90;;;;;;5053747;28;20091;-88
2022/04/07 08:57:14;;;;;;;1.20;1.20;;;11.90;99.90;;;;;;5069365;28;20049;-87
2022/04/07 08:59:42;;;;;;;0.95;0.95;;;12.00;99.90;;;;;;5053736;28;20095;-89
2022/04/07 09:02:10;;;;;;;1.80;1.50;;;12.00;99.90;;;;;;5052960;28;20255;-89
2022/04/07 09:04:39;;;;;;;4.28;0.70;;;11.80;99.90;;;;;;5053711;28;20045;-88
2022/04/07 09:07:07;;;;;;;0.30;0.30;;;11.40;99.90;;;;;;5052248;28;20059;-88
2022/04/07 09:09:36;;;;;;;1.48;0.20;;;11.20;99.90;;;;;;5053902;28;20071;-87
2022/04/07 09:12:06;;;;;;;1.52;0.68;;;10.80;99.90;;;;;;5051973;28;20456;-88
2022/04/07 09:14:35;;;;;;;0.30;0.30;;;10.70;99.90;;;;;;5053806;28;20083;-89
2022/04/07 09:17:02;;;;;;;0.20;0.20;;;10.60;99.90;;;;;;5053744;28;20103;-88
2022/04/07 09:19:31;;;;;;;0.25;0.25;;;10.40;99.90;;;;;;5052556;28;20342;-88
2022/04/07 09:22:12;;;;;;;0.68;0.20;;;10.50;99.90;;;;;;5052652;28;20041;-89
2022/04/07 09:24:41;;;;;;;0.20;0.20;;;10.70;99.90;;;;;;5052565;28;20067;-89
2022/04/07 09:27:09;;;;;;;0.50;0.50;;;10.70;99.90;;;;;;5053854;28;20569;-88
2022/04/07 09:29:41;;;;;;;0.52;0.30;;;10.60;99.90;;;;;;5053763;28;20068;-91
2022/04/07 09:32:22;;;;;;;1.30;0.30;;;10.60;99.90;;;;;;5053950;28;20073;-86
2022/04/07 09:34:53;;;;;;;0.47;0.25;;;10.60;99.90;;;;;;5052727;28;20049;-88
2022/04/07 09:37:25;;;;;;;0.20;0.20;;;10.50;99.90;;;;;;5053293;28;20053;-89
2022/04/07 09:40:12;;;;;;;0.35;0.20;;;10.60;99.90;;;;;;5052409;28;20075;-89
2022/04/07 09:42:42;;;;;;;1.27;0.47;;;10.60;99.90;;;;;;5053721;28;20073;-90
2022/04/07 09:45:13;;;;;;;0.20;0.20;;;10.50;99.90;;;;;;5053009;28;20057;-91
2022/04/07 09:47:49;;;;;;;1.27;0.20;;;10.60;99.90;;;;;;5052656;28;20037;-89
2022/04/07 09:50:29;;;;;;;0.30;0.13;;;10.60;99.90;;;;;;5052725;28;20076;-90
2022/04/07 09:53:03;;;;;;;1.75;0.55;;;10.90;99.90;;;;;;5053172;28;20076;-89
2022/04/07 09:55:34;;;;;;;0.10;0.10;;;11.00;99.90;;;;;;5052585;28;20128;-89
2022/04/07 09:58:03;;;;;;;0.60;0.10;;;11.10;99.90;;;;;;5052797;28;20045;-90
2022/04/07 10:00:31;;;;;;;0.20;0.20;;;11.20;99.90;;;;;;5052955;28;20057;-90
2022/04/07 10:02:58;;;;;;;0.38;0.20;;;11.10;99.90;;;;;;5053432;28;20049;-92
2022/04/07 10:05:25;;;;;;;0.65;0.10;;;11.00;99.90;;;;;;5051374;28;20144;-88
2022/04/07 10:07:52;;;;;;;0.68;0.30;;;11.10;99.90;;;;;;5053156;28;20071;-91
2022/04/07 10:10:19;;;;;;;0.63;0.10;;;11.20;99.90;;;;;;5052178;28;20091;-93
2022/04/07 10:12:47;;;;;;;0.32;0.20;;;11.20;99.90;;;;;;5052164;28;20132;-89
2022/04/07 10:15:18;;;;;;;0.55;0.30;;;11.10;99.90;;;;;;5053092;28;20045;-86
2022/04/07 10:17:46;;;;;;;0.82;0.47;;;11.10;99.90;;;;;;5054795;28;20521;-91
2022/04/07 10:20:15;;;;;;;0.00;0.00;;;10.90;99.90;;;;;;5054821;28;20053;-88
2022/04/07 10:22:57;;;;;;;0.30;0.20;;;10.70;99.90;;;;;;5052941;28;20076;-90
2022/04/07 10:25:25;;;;;;;1.55;1.45;;;10.70;99.90;;;;;;5055541;28;20125;-88
2022/04/07 10:27:55;;;;;;;0.90;0.30;;;10.70;99.90;;;;;;5056579;28;20083;-88
2022/04/07 10:30:22;;;;;;;0.30;0.30;;;10.70;99.90;;;;;;5055715;28;20120;-89
2022/04/07 10:32:52;;;;;;;0.20;0.20;;;10.70;99.90;;;;;;5055743;28;20360;-86
2022/04/07 10:35:34;;;;;;;1.35;0.40;;;10.70;99.90;;;;;;5055216;28;20057;-88
2022/04/07 10:38:03;;;;;;;0.90;0.77;;;10.60;99.90;;;;;;5055317;28;20053;-89
2022/04/07 10:40:39;;;;;;;1.00;0.20;;;10.70;99.90;;;;;;5056120;28;20088;-89
2022/04/07 10:43:25;;;;;;;0.10;0.10;;;10.70;99.90;;;;;;5055553;28;20080;-89
2022/04/07 10:46:01;;;;;;;0.30;0.30;;;10.70;99.90;;;;;;5055240;28;20053;-89
2022/04/07 10:48:30;;;;;;;0.28;0.28;;;10.60;99.90;;;;;;5055075;28;20045;-88
2022/04/07 10:51:01;;;;;;;0.75;0.20;;;10.60;99.90;;;;;;5055128;28;20049;-88
2022/04/07 10:53:31;;;;;;;0.98;0.17;;;10.70;99.90;;;;;;5056405;28;20135;-89
2022/04/07 10:56:06;;;;;;;0.32;0.30;;;11.00;99.90;;;;;;5056479;28;20049;-89
2022/04/07 10:58:39;;;;;;;0.22;0.22;;;11.20;99.90;;;;;;5055142;28;20481;-89
2022/04/07 11:01:06;;;;;;;0.20;0.20;;;11.10;99.90;;;;;;5055907;28;20568;-90
2022/04/07 11:03:35;;;;;;;1.85;0.60;;;11.10;99.90;;;;;;5054799;28;20143;-89
2022/04/07 11:06:06;;;;;;;0.20;0.20;;;11.30;99.90;;;;;;5055169;28;20064;-89
2022/04/07 11:08:33;;;;;;;1.70;0.20;;;11.60;99.90;;;;;;5055030;28;20056;-90
2022/04/07 11:11:00;;;;;;;1.15;0.57;;;11.70;99.90;;;;;;5056015;28;20080;-91
2022/04/07 11:13:45;;;;;;;1.63;0.10;;;11.60;99.90;;;;;;5055212;28;20136;-91
2022/04/07 11:16:21;;;;;;;0.77;0.22;;;11.60;99.90;;;;;;5054791;28;20057;-91
2022/04/07 11:19:20;;;;;;;0.10;0.10;;;11.70;99.90;;;;;;5055944;28;20413;-90
2022/04/07 11:21:51;;;;;;;0.10;0.10;;;11.70;99.90;;;;;;5054922;28;20080;-93
2022/04/07 11:24:23;;;;;;;0.30;0.30;;;11.60;99.90;;;;;;5054879;28;20088;-89
2022/04/07 11:26:53;;;;;;;1.23;0.10;;;11.60;99.90;;;;;;5054453;28;20063;-89
2022/04/07 11:29:34;;;;;;;1.55;0.20;;;12.20;99.90;;;;;;5055853;28;20416;-88
2022/04/07 11:32:09;;;;;;;0.30;0.30;;;12.40;99.90;;;;;;5054717;28;20045;-88
2022/04/07 11:34:36;;;;;;;3.08;0.17;;;12.50;99.90;;;;;;5056487;28;20485;-91
2022/04/07 11:37:07;;;;;;;1.13;0.30;;;12.60;99.90;;;;;;5054718;28;20045;-91
2022/04/07 11:39:37;;;;;;;0.35;0.10;;;12.90;99.90;;;;;;5055445;28;20524;-91
2022/04/07 11:42:07;;;;;;;0.25;0.10;;;13.10;99.90;;;;;;5055929;28;20052;-93
2022/04/07 11:44:34;;;;;;;0.10;0.10;;;13.00;99.90;;;;;;5054772;28;20094;-89
2022/04/07 11:47:02;;;;;;;1.55;0.20;;;12.70;99.90;;;;;;5054300;28;20485;-93
2022/04/07 11:49:29;;;;;;;1.75;0.28;;;12.60;99.90;;;;;;5055395;28;20485;-92
2022/04/07 11:51:56;;;;;;;0.32;0.20;;;12.70;99.90;;;;;;5055082;28;20623;-89
2022/04/07 11:54:24;;;;;;;0.10;0.10;;;12.60;99.90;;;;;;5054938;28;20108;-91
2022/04/07 11:56:51;;;;;;;2.10;0.30;;;12.40;99.90;;;;;;5054730;28;20151;-89
2022/04/07 11:59:20;;;;;;;0.10;0.10;;;12.20;99.90;;;;;;5055187;28;20072;-92
2022/04/07 12:01:47;;;;;;;0.98;0.35;;;12.10;99.90;;;;;;5054289;28;20053;-93
2022/04/07 12:04:14;;;;;;;0.13;0.13;;;11.80;99.90;;;;;;5055221;28;20056;-91
2022/04/07 12:06:45;;;;;;;1.48;0.22;;;11.70;99.90;;;;;;5055656;28;20123;-89
2022/04/07 12:09:15;;;;;;;0.10;0.10;;;11.60;99.90;;;;;;5054044;28;20049;-88
2022/04/07 12:11:43;;;;;;;0.20;0.10;;;11.50;99.90;;;;;;5053409;28;20485;-91
2022/04/07 12:14:11;;;;;;;1.38;0.20;;;11.50;99.90;;;;;;5053078;28;20091;-89
2022/04/07 12:16:46;;;;;;;1.70;0.10;;;11.50;99.90;;;;;;5053800;28;20048;-88
2022/04/07 12:19:17;;;;;;;0.22;0.15;;;11.60;99.90;;;;;;5054011;28;20053;-90
2022/04/07 12:22:10;;;;;;;0.32;0.20;;;11.80;99.90;;;;;;5054033;28;20057;-90
2022/04/07 12:24:38;;;;;;;0.28;0.10;;;11.90;99.90;;;;;;5052792;28;20049;-90
2022/04/07 12:27:07;;;;;;;0.32;0.10;;;12.00;99.90;;;;;;5053809;28;20048;-93
2022/04/07 12:29:34;;;;;;;0.10;0.10;;;12.10;99.90;;;;;;5053505;28;20136;-92
2022/04/07 12:32:09;;;;;;;0.43;0.20;;;12.00;99.90;;;;;;5054636;28;20135;-92
2022/04/07 12:34:48;;;;;;;0.10;0.10;;;11.80;99.90;;;;;;5055261;28;20084;-93
2022/04/07 12:37:28;;;;;;;0.10;0.10;;;11.60;99.90;;;;;;5053397;28;20517;-88
2022/04/07 12:39:55;;;;;;;3.50;0.20;;;11.50;99.90;;;;;;5053540;28;20085;-93
2022/04/07 12:42:22;;;;;;;1.17;0.20;;;11.40;99.90;;;;;;5053446;28;20084;-89
2022/04/07 12:44:49;;;;;;;0.30;0.30;;;11.20;99.90;;;;;;5052822;28;20127;-89
2022/04/07 12:47:26;;;;;;;0.80;0.20;;;11.10;99.90;;;;;;5053530;28;20084;-90
2022/04/07 12:49:55;;;;;;;0.28;0.00;;;11.00;99.90;;;;;;5055212;28;20041;-89
2022/04/07 12:52:43;;;;;;;1.20;0.25;;;11.00;99.90;;;;;;5052934;28;20119;-92
2022/04/07 12:55:15;;;;;;;1.40;0.10;;;10.90;99.90;;;;;;5053604;28;20053;-91
2022/04/07 12:57:43;;;;;;;1.38;0.30;;;10.90;99.90;;;;;;5053187;28;20482;-94
2022/04/07 13:00:34;;;;;;;0.28;0.22;;;11.00;99.90;;;;;;5052455;28;20051;-89